sensor_id;sensor_type;location;lat;lon;timestamp;P1;durP1;ratioP1;P2;durP2;ratioP2
74459;SDS011;62902;48.854;9.292;2023-06-10T00:02:09;578.22;;;116.93;;
74459;SDS011;62902;48.854;9.292;2023-06-10T00:04:36;553.65;;;136.85;;
74459;SDS011;62902;48.854;9.292;2023-06-10T00:07:03;612.75;;;98.50;;
74459;SDS011;62902;48.854;9.292;2023-06-10T00:09:30;596.33;;;97.40;;
74459;SDS011;62902;48.854;9.292;2023-06-10T00:11:59;601.40;;;127.20;;
74459;SDS011;62902;48.854;9.292;2023-06-10T00:14:26;582.73;;;134.73;;
74459;SDS011;62902;48.854;9.292;2023-06-10T00:16:53;589.20;;;139.40;;
74459;SDS011;62902;48.854;9.292;2023-06-10T00:19:21;580.70;;;138.80;;
74459;SDS011;62902;48.854;9.292;2023-06-10T00:21:51;597.73;;;135.60;;
74459;SDS011;62902;48.854;9.292;2023-06-10T00:24:18;591.75;;;116.85;;
74459;SDS011;62902;48.854;9.292;2023-06-10T00:26:45;598.90;;;131.65;;
74459;SDS011;62902;48.854;9.292;2023-06-10T00:29:13;571.20;;;141.60;;
74459;SDS011;62902;48.854;9.292;2023-06-10T00:31:40;596.35;;;93.70;;
74459;SDS011;62902;48.854;9.292;2023-06-10T00:34:07;605.40;;;117.53;;
74459;SDS011;62902;48.854;9.292;2023-06-10T00:36:34;592.45;;;113.55;;
74459;SDS011;62902;48.854;9.292;2023-06-10T00:39:04;604.65;;;122.40;;
74459;SDS011;62902;48.854;9.292;2023-06-10T00:41:30;573.77;;;132.53;;
74459;SDS011;62902;48.854;9.292;2023-06-10T00:43:58;590.30;;;124.05;;
74459;SDS011;62902;48.854;9.292;2023-06-10T00:46:24;595.20;;;102.35;;
74459;SDS011;62902;48.854;9.292;2023-06-10T00:48:54;583.20;;;145.40;;
74459;SDS011;62902;48.854;9.292;2023-06-10T00:51:24;568.47;;;136.80;;
74459;SDS011;62902;48.854;9.292;2023-06-10T00:53:51;577.30;;;136.95;;
74459;SDS011;62902;48.854;9.292;2023-06-10T00:56:18;586.23;;;133.73;;
74459;SDS011;62902;48.854;9.292;2023-06-10T00:58:46;586.73;;;129.33;;
74459;SDS011;62902;48.854;9.292;2023-06-10T01:01:13;577.00;;;136.40;;
74459;SDS011;62902;48.854;9.292;2023-06-10T01:03:40;567.35;;;138.85;;
74459;SDS011;62902;48.854;9.292;2023-06-10T01:08:56;577.35;;;138.60;;
74459;SDS011;62902;48.854;9.292;2023-06-10T01:11:29;571.55;;;136.80;;
74459;SDS011;62902;48.854;9.292;2023-06-10T01:14:00;573.50;;;136.80;;
74459;SDS011;62902;48.854;9.292;2023-06-10T01:16:27;585.20;;;142.73;;
74459;SDS011;62902;48.854;9.292;2023-06-10T01:18:54;577.33;;;124.17;;
74459;SDS011;62902;48.854;9.292;2023-06-10T01:21:22;567.90;;;137.30;;
74459;SDS011;62902;48.854;9.292;2023-06-10T01:23:51;565.72;;;145.77;;
74459;SDS011;62902;48.854;9.292;2023-06-10T01:26:19;549.35;;;150.40;;
74459;SDS011;62902;48.854;9.292;2023-06-10T01:28:51;524.90;;;156.40;;
74459;SDS011;62902;48.854;9.292;2023-06-10T01:31:31;529.00;;;155.85;;
74459;SDS011;62902;48.854;9.292;2023-06-10T01:34:16;582.40;;;143.40;;
74459;SDS011;62902;48.854;9.292;2023-06-10T01:36:44;572.70;;;139.10;;
74459;SDS011;62902;48.854;9.292;2023-06-10T01:39:17;570.05;;;137.05;;
74459;SDS011;62902;48.854;9.292;2023-06-10T01:41:44;569.90;;;136.50;;
74459;SDS011;62902;48.854;9.292;2023-06-10T01:44:17;571.55;;;136.55;;
74459;SDS011;62902;48.854;9.292;2023-06-10T01:49:12;571.20;;;137.80;;
74459;SDS011;62902;48.854;9.292;2023-06-10T01:51:41;579.50;;;143.00;;
74459;SDS011;62902;48.854;9.292;2023-06-10T01:54:08;573.33;;;144.77;;
74459;SDS011;62902;48.854;9.292;2023-06-10T01:56:35;557.15;;;145.10;;
74459;SDS011;62902;48.854;9.292;2023-06-10T01:59:01;564.17;;;145.82;;
74459;SDS011;62902;48.854;9.292;2023-06-10T02:01:28;549.95;;;138.25;;
74459;SDS011;62902;48.854;9.292;2023-06-10T02:03:55;560.90;;;146.10;;
74459;SDS011;62902;48.854;9.292;2023-06-10T02:06:22;556.20;;;147.10;;
74459;SDS011;62902;48.854;9.292;2023-06-10T02:08:48;560.55;;;144.00;;
74459;SDS011;62902;48.854;9.292;2023-06-10T02:11:15;544.05;;;150.80;;
74459;SDS011;62902;48.854;9.292;2023-06-10T02:13:41;559.47;;;143.60;;
74459;SDS011;62902;48.854;9.292;2023-06-10T02:16:08;554.60;;;142.80;;
74459;SDS011;62902;48.854;9.292;2023-06-10T02:18:39;559.50;;;139.27;;
74459;SDS011;62902;48.854;9.292;2023-06-10T02:21:09;555.80;;;131.25;;
74459;SDS011;62902;48.854;9.292;2023-06-10T02:23:36;554.60;;;143.65;;
74459;SDS011;62902;48.854;9.292;2023-06-10T02:26:03;564.40;;;143.50;;
74459;SDS011;62902;48.854;9.292;2023-06-10T02:28:29;568.20;;;140.23;;
74459;SDS011;62902;48.854;9.292;2023-06-10T02:30:57;557.10;;;141.98;;
74459;SDS011;62902;48.854;9.292;2023-06-10T02:33:25;514.40;;;157.90;;
74459;SDS011;62902;48.854;9.292;2023-06-10T02:35:53;511.05;;;163.50;;
74459;SDS011;62902;48.854;9.292;2023-06-10T02:38:21;542.65;;;149.48;;
74459;SDS011;62902;48.854;9.292;2023-06-10T02:40:47;529.50;;;148.05;;
74459;SDS011;62902;48.854;9.292;2023-06-10T02:43:14;554.73;;;147.40;;
74459;SDS011;62902;48.854;9.292;2023-06-10T02:45:42;508.70;;;161.00;;
74459;SDS011;62902;48.854;9.292;2023-06-10T02:48:10;498.60;;;166.40;;
74459;SDS011;62902;48.854;9.292;2023-06-10T02:50:37;542.35;;;150.10;;
74459;SDS011;62902;48.854;9.292;2023-06-10T02:53:34;516.00;;;160.85;;
74459;SDS011;62902;48.854;9.292;2023-06-10T02:56:06;545.05;;;150.50;;
74459;SDS011;62902;48.854;9.292;2023-06-10T02:58:33;489.50;;;172.30;;
74459;SDS011;62902;48.854;9.292;2023-06-10T03:01:00;525.35;;;159.45;;
74459;SDS011;62902;48.854;9.292;2023-06-10T03:03:34;489.07;;;175.13;;
74459;SDS011;62902;48.854;9.292;2023-06-10T03:06:06;555.17;;;145.25;;
74459;SDS011;62902;48.854;9.292;2023-06-10T03:08:33;545.30;;;150.07;;
74459;SDS011;62902;48.854;9.292;2023-06-10T03:11:04;547.40;;;151.95;;
74459;SDS011;62902;48.854;9.292;2023-06-10T03:13:32;543.10;;;153.90;;
74459;SDS011;62902;48.854;9.292;2023-06-10T03:15:59;531.35;;;156.90;;
74459;SDS011;62902;48.854;9.292;2023-06-10T03:18:27;515.05;;;157.40;;
74459;SDS011;62902;48.854;9.292;2023-06-10T03:20:54;475.47;;;175.73;;
74459;SDS011;62902;48.854;9.292;2023-06-10T03:23:29;477.00;;;173.65;;
74459;SDS011;62902;48.854;9.292;2023-06-10T03:25:56;462.10;;;185.35;;
74459;SDS011;62902;48.854;9.292;2023-06-10T03:28:23;486.63;;;166.50;;
74459;SDS011;62902;48.854;9.292;2023-06-10T03:30:50;492.03;;;162.83;;
74459;SDS011;62902;48.854;9.292;2023-06-10T03:33:19;489.77;;;165.90;;
74459;SDS011;62902;48.854;9.292;2023-06-10T03:35:46;481.97;;;170.50;;
74459;SDS011;62902;48.854;9.292;2023-06-10T03:38:13;497.10;;;167.10;;
74459;SDS011;62902;48.854;9.292;2023-06-10T03:40:42;496.80;;;166.00;;
74459;SDS011;62902;48.854;9.292;2023-06-10T03:43:09;500.75;;;165.50;;
74459;SDS011;62902;48.854;9.292;2023-06-10T03:45:36;511.45;;;157.45;;
74459;SDS011;62902;48.854;9.292;2023-06-10T03:48:06;484.70;;;166.80;;
74459;SDS011;62902;48.854;9.292;2023-06-10T03:50:42;524.30;;;152.60;;
74459;SDS011;62902;48.854;9.292;2023-06-10T03:53:09;479.35;;;176.75;;
74459;SDS011;62902;48.854;9.292;2023-06-10T03:55:38;473.13;;;176.45;;
74459;SDS011;62902;48.854;9.292;2023-06-10T03:58:05;562.33;;;148.13;;
74459;SDS011;62902;48.854;9.292;2023-06-10T04:00:31;492.90;;;158.90;;
74459;SDS011;62902;48.854;9.292;2023-06-10T04:03:10;490.50;;;169.80;;
74459;SDS011;62902;48.854;9.292;2023-06-10T04:05:44;480.67;;;172.13;;
74459;SDS011;62902;48.854;9.292;2023-06-10T04:08:14;513.75;;;157.10;;
74459;SDS011;62902;48.854;9.292;2023-06-10T04:10:41;531.90;;;152.50;;
74459;SDS011;62902;48.854;9.292;2023-06-10T04:13:11;560.50;;;155.65;;
74459;SDS011;62902;48.854;9.292;2023-06-10T04:15:45;492.05;;;163.75;;
74459;SDS011;62902;48.854;9.292;2023-06-10T04:18:15;524.70;;;161.38;;
74459;SDS011;62902;48.854;9.292;2023-06-10T04:20:43;494.30;;;162.60;;
74459;SDS011;62902;48.854;9.292;2023-06-10T04:23:11;500.10;;;161.73;;
74459;SDS011;62902;48.854;9.292;2023-06-10T04:25:40;490.63;;;161.73;;
74459;SDS011;62902;48.854;9.292;2023-06-10T04:28:07;418.90;;;223.00;;
74459;SDS011;62902;48.854;9.292;2023-06-10T04:30:35;426.85;;;222.80;;
74459;SDS011;62902;48.854;9.292;2023-06-10T04:33:01;517.00;;;158.95;;
74459;SDS011;62902;48.854;9.292;2023-06-10T04:35:28;521.55;;;139.75;;
74459;SDS011;62902;48.854;9.292;2023-06-10T04:38:04;527.70;;;147.90;;
74459;SDS011;62902;48.854;9.292;2023-06-10T04:40:31;455.20;;;196.45;;
74459;SDS011;62902;48.854;9.292;2023-06-10T04:42:58;497.20;;;164.73;;
74459;SDS011;62902;48.854;9.292;2023-06-10T04:45:26;473.00;;;178.00;;
74459;SDS011;62902;48.854;9.292;2023-06-10T04:47:54;414.20;;;224.25;;
74459;SDS011;62902;48.854;9.292;2023-06-10T04:50:22;414.60;;;227.30;;
74459;SDS011;62902;48.854;9.292;2023-06-10T04:52:49;433.50;;;214.30;;
74459;SDS011;62902;48.854;9.292;2023-06-10T04:55:15;432.30;;;212.20;;
74459;SDS011;62902;48.854;9.292;2023-06-10T04:57:42;522.00;;;153.03;;
74459;SDS011;62902;48.854;9.292;2023-06-10T05:00:09;533.77;;;151.70;;
74459;SDS011;62902;48.854;9.292;2023-06-10T05:02:36;511.53;;;158.20;;
74459;SDS011;62902;48.854;9.292;2023-06-10T05:05:03;459.53;;;190.50;;
74459;SDS011;62902;48.854;9.292;2023-06-10T05:07:29;486.50;;;168.90;;
74459;SDS011;62902;48.854;9.292;2023-06-10T05:10:00;513.25;;;162.30;;
74459;SDS011;62902;48.854;9.292;2023-06-10T05:12:30;406.60;;;212.83;;
74459;SDS011;62902;48.854;9.292;2023-06-10T05:14:57;568.60;;;143.70;;
74459;SDS011;62902;48.854;9.292;2023-06-10T05:17:23;429.10;;;216.90;;
74459;SDS011;62902;48.854;9.292;2023-06-10T05:19:51;456.20;;;201.60;;
74459;SDS011;62902;48.854;9.292;2023-06-10T05:22:19;491.90;;;172.95;;
74459;SDS011;62902;48.854;9.292;2023-06-10T05:24:45;513.35;;;167.00;;
74459;SDS011;62902;48.854;9.292;2023-06-10T05:27:12;407.70;;;164.50;;
74459;SDS011;62902;48.854;9.292;2023-06-10T05:29:38;468.95;;;170.05;;
74459;SDS011;62902;48.854;9.292;2023-06-10T05:32:06;522.22;;;158.35;;
74459;SDS011;62902;48.854;9.292;2023-06-10T05:34:33;509.95;;;150.40;;
74459;SDS011;62902;48.854;9.292;2023-06-10T05:37:00;525.60;;;158.00;;
74459;SDS011;62902;48.854;9.292;2023-06-10T05:39:26;528.00;;;156.00;;
74459;SDS011;62902;48.854;9.292;2023-06-10T05:41:53;491.55;;;162.85;;
74459;SDS011;62902;48.854;9.292;2023-06-10T05:44:23;524.20;;;154.10;;
74459;SDS011;62902;48.854;9.292;2023-06-10T05:46:49;408.90;;;204.90;;
74459;SDS011;62902;48.854;9.292;2023-06-10T05:51:43;408.30;;;186.90;;
74459;SDS011;62902;48.854;9.292;2023-06-10T05:54:10;409.65;;;206.60;;
74459;SDS011;62902;48.854;9.292;2023-06-10T05:59:04;359.60;;;104.30;;
74459;SDS011;62902;48.854;9.292;2023-06-10T06:01:31;554.65;;;153.80;;
74459;SDS011;62902;48.854;9.292;2023-06-10T06:03:57;484.10;;;186.20;;
74459;SDS011;62902;48.854;9.292;2023-06-10T06:06:24;486.65;;;185.25;;
74459;SDS011;62902;48.854;9.292;2023-06-10T06:08:51;432.00;;;163.30;;
74459;SDS011;62902;48.854;9.292;2023-06-10T06:11:18;526.10;;;164.63;;
74459;SDS011;62902;48.854;9.292;2023-06-10T06:13:44;505.90;;;182.00;;
74459;SDS011;62902;48.854;9.292;2023-06-10T06:16:11;491.77;;;189.50;;
74459;SDS011;62902;48.854;9.292;2023-06-10T06:18:37;497.75;;;182.20;;
74459;SDS011;62902;48.854;9.292;2023-06-10T06:21:04;504.20;;;175.80;;
74459;SDS011;62902;48.854;9.292;2023-06-10T06:23:30;510.38;;;170.48;;
74459;SDS011;62902;48.854;9.292;2023-06-10T06:25:57;503.65;;;176.45;;
74459;SDS011;62902;48.854;9.292;2023-06-10T06:28:24;526.50;;;167.30;;
74459;SDS011;62902;48.854;9.292;2023-06-10T06:30:56;514.80;;;171.15;;
74459;SDS011;62902;48.854;9.292;2023-06-10T06:33:23;526.10;;;166.30;;
74459;SDS011;62902;48.854;9.292;2023-06-10T06:35:50;480.40;;;194.37;;
74459;SDS011;62902;48.854;9.292;2023-06-10T06:38:16;467.20;;;203.50;;
74459;SDS011;62902;48.854;9.292;2023-06-10T06:40:49;450.07;;;218.90;;
74459;SDS011;62902;48.854;9.292;2023-06-10T06:43:15;474.75;;;204.43;;
74459;SDS011;62902;48.854;9.292;2023-06-10T06:46:08;470.97;;;198.33;;
74459;SDS011;62902;48.854;9.292;2023-06-10T06:48:35;468.30;;;198.10;;
74459;SDS011;62902;48.854;9.292;2023-06-10T06:51:02;455.90;;;214.80;;
74459;SDS011;62902;48.854;9.292;2023-06-10T06:53:28;464.70;;;197.80;;
74459;SDS011;62902;48.854;9.292;2023-06-10T06:55:59;510.45;;;170.55;;
74459;SDS011;62902;48.854;9.292;2023-06-10T06:58:26;463.90;;;205.90;;
74459;SDS011;62902;48.854;9.292;2023-06-10T07:00:55;516.90;;;170.80;;
74459;SDS011;62902;48.854;9.292;2023-06-10T07:03:22;532.50;;;167.20;;
74459;SDS011;62902;48.854;9.292;2023-06-10T07:05:49;525.50;;;164.90;;
74459;SDS011;62902;48.854;9.292;2023-06-10T07:08:18;522.20;;;169.70;;
74459;SDS011;62902;48.854;9.292;2023-06-10T07:10:45;532.65;;;158.35;;
74459;SDS011;62902;48.854;9.292;2023-06-10T07:13:12;525.60;;;162.40;;
74459;SDS011;62902;48.854;9.292;2023-06-10T07:15:43;533.20;;;162.00;;
74459;SDS011;62902;48.854;9.292;2023-06-10T07:18:14;501.95;;;172.65;;
74459;SDS011;62902;48.854;9.292;2023-06-10T07:20:41;477.10;;;193.60;;
74459;SDS011;62902;48.854;9.292;2023-06-10T07:23:08;484.50;;;195.15;;
74459;SDS011;62902;48.854;9.292;2023-06-10T07:25:37;491.13;;;186.80;;
74459;SDS011;62902;48.854;9.292;2023-06-10T07:28:04;493.30;;;186.75;;
74459;SDS011;62902;48.854;9.292;2023-06-10T07:30:34;509.25;;;170.80;;
74459;SDS011;62902;48.854;9.292;2023-06-10T07:33:03;531.45;;;169.05;;
74459;SDS011;62902;48.854;9.292;2023-06-10T07:35:29;522.55;;;167.65;;
74459;SDS011;62902;48.854;9.292;2023-06-10T07:37:56;544.10;;;159.10;;
74459;SDS011;62902;48.854;9.292;2023-06-10T07:40:23;528.30;;;164.00;;
74459;SDS011;62902;48.854;9.292;2023-06-10T07:42:50;555.40;;;157.40;;
74459;SDS011;62902;48.854;9.292;2023-06-10T07:45:17;544.60;;;160.50;;
74459;SDS011;62902;48.854;9.292;2023-06-10T07:47:43;560.10;;;152.40;;
74459;SDS011;62902;48.854;9.292;2023-06-10T07:50:11;562.10;;;153.40;;
74459;SDS011;62902;48.854;9.292;2023-06-10T07:52:37;564.83;;;155.27;;
74459;SDS011;62902;48.854;9.292;2023-06-10T07:55:04;550.80;;;159.93;;
74459;SDS011;62902;48.854;9.292;2023-06-10T07:57:31;553.90;;;158.90;;
74459;SDS011;62902;48.854;9.292;2023-06-10T08:00:01;560.70;;;156.03;;
74459;SDS011;62902;48.854;9.292;2023-06-10T08:02:37;565.00;;;155.70;;
74459;SDS011;62902;48.854;9.292;2023-06-10T08:05:04;559.85;;;157.90;;
74459;SDS011;62902;48.854;9.292;2023-06-10T08:07:31;556.57;;;158.47;;
74459;SDS011;62902;48.854;9.292;2023-06-10T08:10:01;554.60;;;157.60;;
74459;SDS011;62902;48.854;9.292;2023-06-10T08:12:28;575.80;;;155.50;;
74459;SDS011;62902;48.854;9.292;2023-06-10T08:14:55;583.70;;;155.40;;
74459;SDS011;62902;48.854;9.292;2023-06-10T08:17:21;578.73;;;148.77;;
74459;SDS011;62902;48.854;9.292;2023-06-10T08:19:50;553.25;;;150.35;;
74459;SDS011;62902;48.854;9.292;2023-06-10T08:22:17;543.60;;;151.70;;
74459;SDS011;62902;48.854;9.292;2023-06-10T08:24:44;567.20;;;154.30;;
74459;SDS011;62902;48.854;9.292;2023-06-10T08:27:14;564.47;;;158.95;;
74459;SDS011;62902;48.854;9.292;2023-06-10T08:29:41;579.10;;;156.50;;
74459;SDS011;62902;48.854;9.292;2023-06-10T08:32:10;599.88;;;155.85;;
74459;SDS011;62902;48.854;9.292;2023-06-10T08:34:36;590.80;;;130.73;;
74459;SDS011;62902;48.854;9.292;2023-06-10T08:37:03;582.10;;;153.70;;
74459;SDS011;62902;48.854;9.292;2023-06-10T08:39:30;595.30;;;156.75;;
74459;SDS011;62902;48.854;9.292;2023-06-10T08:44:33;582.47;;;147.17;;
74459;SDS011;62902;48.854;9.292;2023-06-10T08:47:10;583.50;;;145.80;;
74459;SDS011;62902;48.854;9.292;2023-06-10T08:49:44;585.88;;;146.73;;
74459;SDS011;62902;48.854;9.292;2023-06-10T08:52:15;591.58;;;147.77;;
74459;SDS011;62902;48.854;9.292;2023-06-10T08:54:52;598.03;;;129.27;;
74459;SDS011;62902;48.854;9.292;2023-06-10T08:57:23;603.50;;;113.83;;
74459;SDS011;62902;48.854;9.292;2023-06-10T08:59:51;604.27;;;110.80;;
74459;SDS011;62902;48.854;9.292;2023-06-10T09:02:19;604.60;;;110.50;;
74459;SDS011;62902;48.854;9.292;2023-06-10T09:04:47;604.15;;;107.45;;
74459;SDS011;62902;48.854;9.292;2023-06-10T09:07:15;605.63;;;97.97;;
74459;SDS011;62902;48.854;9.292;2023-06-10T09:09:43;605.50;;;106.13;;
74459;SDS011;62902;48.854;9.292;2023-06-10T09:12:11;603.40;;;103.15;;
74459;SDS011;62902;48.854;9.292;2023-06-10T09:14:40;604.85;;;105.30;;
74459;SDS011;62902;48.854;9.292;2023-06-10T09:17:13;604.25;;;103.00;;
74459;SDS011;62902;48.854;9.292;2023-06-10T09:19:40;605.60;;;107.90;;
74459;SDS011;62902;48.854;9.292;2023-06-10T09:22:12;607.35;;;102.55;;
74459;SDS011;62902;48.854;9.292;2023-06-10T09:24:39;607.13;;;105.07;;
74459;SDS011;62902;48.854;9.292;2023-06-10T09:27:06;607.75;;;104.60;;
74459;SDS011;62902;48.854;9.292;2023-06-10T09:29:47;607.55;;;100.70;;
74459;SDS011;62902;48.854;9.292;2023-06-10T09:32:14;623.95;;;111.05;;
74459;SDS011;62902;48.854;9.292;2023-06-10T09:34:41;609.15;;;104.60;;
74459;SDS011;62902;48.854;9.292;2023-06-10T09:37:08;623.35;;;130.30;;
74459;SDS011;62902;48.854;9.292;2023-06-10T09:39:38;601.95;;;135.40;;
74459;SDS011;62902;48.854;9.292;2023-06-10T09:42:17;620.83;;;137.82;;
74459;SDS011;62902;48.854;9.292;2023-06-10T09:44:51;609.43;;;126.60;;
74459;SDS011;62902;48.854;9.292;2023-06-10T09:47:21;626.40;;;111.65;;
74459;SDS011;62902;48.854;9.292;2023-06-10T09:49:49;606.43;;;127.23;;
74459;SDS011;62902;48.854;9.292;2023-06-10T09:52:21;595.10;;;156.70;;
74459;SDS011;62902;48.854;9.292;2023-06-10T09:54:58;611.90;;;139.37;;
74459;SDS011;62902;48.854;9.292;2023-06-10T09:57:29;589.53;;;154.73;;
74459;SDS011;62902;48.854;9.292;2023-06-10T09:59:57;579.20;;;158.80;;
74459;SDS011;62902;48.854;9.292;2023-06-10T10:02:24;572.60;;;159.00;;
74459;SDS011;62902;48.854;9.292;2023-06-10T10:04:50;563.90;;;169.40;;
74459;SDS011;62902;48.854;9.292;2023-06-10T10:07:17;600.27;;;159.40;;
74459;SDS011;62902;48.854;9.292;2023-06-10T10:09:44;596.20;;;156.10;;
74459;SDS011;62902;48.854;9.292;2023-06-10T10:12:11;585.00;;;169.10;;
74459;SDS011;62902;48.854;9.292;2023-06-10T10:14:43;569.70;;;175.60;;
74459;SDS011;62902;48.854;9.292;2023-06-10T10:17:13;538.70;;;191.70;;
74459;SDS011;62902;48.854;9.292;2023-06-10T10:19:48;618.00;;;153.13;;
74459;SDS011;62902;48.854;9.292;2023-06-10T10:22:23;590.50;;;168.60;;
74459;SDS011;62902;48.854;9.292;2023-06-10T10:24:55;575.93;;;175.30;;
74459;SDS011;62902;48.854;9.292;2023-06-10T10:27:36;622.00;;;155.30;;
74459;SDS011;62902;48.854;9.292;2023-06-10T10:30:07;622.35;;;99.90;;
74459;SDS011;62902;48.854;9.292;2023-06-10T10:32:38;623.90;;;104.95;;
74459;SDS011;62902;48.854;9.292;2023-06-10T10:35:12;618.05;;;90.15;;
74459;SDS011;62902;48.854;9.292;2023-06-10T10:37:44;33.77;;;3.80;;
74459;SDS011;62902;48.854;9.292;2023-06-10T10:40:16;9.00;;;1.45;;
74459;SDS011;62902;48.854;9.292;2023-06-10T10:42:43;612.55;;;110.30;;
74459;SDS011;62902;48.854;9.292;2023-06-10T10:45:09;596.25;;;99.00;;
74459;SDS011;62902;48.854;9.292;2023-06-10T10:47:37;598.20;;;93.70;;
74459;SDS011;62902;48.854;9.292;2023-06-10T10:50:15;228.60;;;32.35;;
74459;SDS011;62902;48.854;9.292;2023-06-10T10:52:51;9.23;;;1.45;;
74459;SDS011;62902;48.854;9.292;2023-06-10T10:55:23;619.10;;;140.30;;
74459;SDS011;62902;48.854;9.292;2023-06-10T10:57:57;328.00;;;58.67;;
74459;SDS011;62902;48.854;9.292;2023-06-10T11:00:29;600.92;;;114.95;;
74459;SDS011;62902;48.854;9.292;2023-06-10T11:03:03;607.00;;;149.47;;
74459;SDS011;62902;48.854;9.292;2023-06-10T11:08:45;710.20;;;102.25;;
74459;SDS011;62902;48.854;9.292;2023-06-10T11:11:24;390.00;;;43.20;;
74459;SDS011;62902;48.854;9.292;2023-06-10T11:16:28;604.90;;;127.00;;
74459;SDS011;62902;48.854;9.292;2023-06-10T11:18:55;580.80;;;134.55;;
74459;SDS011;62902;48.854;9.292;2023-06-10T11:21:28;632.70;;;107.20;;
74459;SDS011;62902;48.854;9.292;2023-06-10T11:31:40;616.30;;;127.90;;
74459;SDS011;62902;48.854;9.292;2023-06-10T11:34:12;608.65;;;99.50;;
74459;SDS011;62902;48.854;9.292;2023-06-10T11:36:40;192.50;;;30.07;;
74459;SDS011;62902;48.854;9.292;2023-06-10T11:41:35;605.57;;;119.07;;
74459;SDS011;62902;48.854;9.292;2023-06-10T11:44:07;586.03;;;117.10;;
74459;SDS011;62902;48.854;9.292;2023-06-10T11:46:35;569.50;;;148.70;;
74459;SDS011;62902;48.854;9.292;2023-06-10T11:49:02;570.20;;;152.70;;
74459;SDS011;62902;48.854;9.292;2023-06-10T11:51:33;543.57;;;157.97;;
74459;SDS011;62902;48.854;9.292;2023-06-10T11:54:01;522.93;;;174.60;;
74459;SDS011;62902;48.854;9.292;2023-06-10T11:56:29;590.95;;;144.40;;
74459;SDS011;62902;48.854;9.292;2023-06-10T11:58:57;576.65;;;144.70;;
74459;SDS011;62902;48.854;9.292;2023-06-10T12:01:32;986.00;;;180.80;;
74459;SDS011;62902;48.854;9.292;2023-06-10T12:04:01;600.37;;;147.40;;
74459;SDS011;62902;48.854;9.292;2023-06-10T12:06:37;626.40;;;139.37;;
74459;SDS011;62902;48.854;9.292;2023-06-10T12:09:28;580.20;;;154.00;;
74459;SDS011;62902;48.854;9.292;2023-06-10T12:17:42;615.03;;;130.98;;
74459;SDS011;62902;48.854;9.292;2023-06-10T12:20:09;619.37;;;145.20;;
74459;SDS011;62902;48.854;9.292;2023-06-10T12:22:52;603.70;;;139.40;;
74459;SDS011;62902;48.854;9.292;2023-06-10T12:25:23;603.65;;;152.90;;
74459;SDS011;62902;48.854;9.292;2023-06-10T12:27:52;559.75;;;179.00;;
74459;SDS011;62902;48.854;9.292;2023-06-10T12:30:22;484.50;;;90.10;;
74459;SDS011;62902;48.854;9.292;2023-06-10T12:35:49;611.80;;;133.20;;
74459;SDS011;62902;48.854;9.292;2023-06-10T12:38:23;1083.10;;;251.50;;
74459;SDS011;62902;48.854;9.292;2023-06-10T12:41:02;603.40;;;130.10;;
74459;SDS011;62902;48.854;9.292;2023-06-10T12:43:31;543.90;;;153.60;;
74459;SDS011;62902;48.854;9.292;2023-06-10T12:46:10;600.40;;;141.83;;
74459;SDS011;62902;48.854;9.292;2023-06-10T12:48:48;600.37;;;143.10;;
74459;SDS011;62902;48.854;9.292;2023-06-10T12:51:16;574.75;;;151.25;;
74459;SDS011;62902;48.854;9.292;2023-06-10T12:53:42;565.80;;;155.85;;
74459;SDS011;62902;48.854;9.292;2023-06-10T12:56:09;568.50;;;153.00;;
74459;SDS011;62902;48.854;9.292;2023-06-10T12:58:36;572.60;;;154.60;;
74459;SDS011;62902;48.854;9.292;2023-06-10T13:01:02;562.20;;;160.30;;
74459;SDS011;62902;48.854;9.292;2023-06-10T13:03:30;595.90;;;147.00;;
74459;SDS011;62902;48.854;9.292;2023-06-10T13:06:03;579.75;;;139.15;;
74459;SDS011;62902;48.854;9.292;2023-06-10T13:08:33;572.95;;;151.25;;
74459;SDS011;62902;48.854;9.292;2023-06-10T13:11:05;573.90;;;151.67;;
74459;SDS011;62902;48.854;9.292;2023-06-10T13:13:33;560.15;;;141.30;;
74459;SDS011;62902;48.854;9.292;2023-06-10T13:16:00;554.20;;;163.50;;
74459;SDS011;62902;48.854;9.292;2023-06-10T13:18:28;538.30;;;170.05;;
74459;SDS011;62902;48.854;9.292;2023-06-10T13:20:57;548.45;;;165.85;;
74459;SDS011;62902;48.854;9.292;2023-06-10T13:23:24;562.50;;;156.40;;
74459;SDS011;62902;48.854;9.292;2023-06-10T13:25:50;532.90;;;158.20;;
74459;SDS011;62902;48.854;9.292;2023-06-10T13:28:17;558.20;;;156.40;;
74459;SDS011;62902;48.854;9.292;2023-06-10T13:30:43;524.70;;;194.37;;
74459;SDS011;62902;48.854;9.292;2023-06-10T13:33:10;520.97;;;199.40;;
74459;SDS011;62902;48.854;9.292;2023-06-10T13:35:37;559.17;;;166.15;;
74459;SDS011;62902;48.854;9.292;2023-06-10T13:38:03;552.35;;;165.95;;
74459;SDS011;62902;48.854;9.292;2023-06-10T13:40:30;552.90;;;168.30;;
74459;SDS011;62902;48.854;9.292;2023-06-10T13:42:58;541.78;;;171.27;;
74459;SDS011;62902;48.854;9.292;2023-06-10T13:45:25;489.90;;;228.50;;
74459;SDS011;62902;48.854;9.292;2023-06-10T13:47:51;545.15;;;165.20;;
74459;SDS011;62902;48.854;9.292;2023-06-10T13:50:18;559.50;;;157.80;;
74459;SDS011;62902;48.854;9.292;2023-06-10T13:52:44;548.25;;;163.45;;
74459;SDS011;62902;48.854;9.292;2023-06-10T13:55:11;556.43;;;155.43;;
74459;SDS011;62902;48.854;9.292;2023-06-10T13:57:39;568.00;;;151.60;;
74459;SDS011;62902;48.854;9.292;2023-06-10T14:00:06;553.00;;;143.25;;
74459;SDS011;62902;48.854;9.292;2023-06-10T14:02:35;556.22;;;162.98;;
74459;SDS011;62902;48.854;9.292;2023-06-10T14:05:02;527.10;;;174.37;;
74459;SDS011;62902;48.854;9.292;2023-06-10T14:07:29;563.00;;;151.03;;
74459;SDS011;62902;48.854;9.292;2023-06-10T14:09:58;567.15;;;153.80;;
74459;SDS011;62902;48.854;9.292;2023-06-10T14:12:25;591.15;;;145.95;;
74459;SDS011;62902;48.854;9.292;2023-06-10T14:14:51;583.58;;;153.90;;
74459;SDS011;62902;48.854;9.292;2023-06-10T14:17:32;597.10;;;148.30;;
74459;SDS011;62902;48.854;9.292;2023-06-10T14:19:59;558.35;;;148.45;;
74459;SDS011;62902;48.854;9.292;2023-06-10T14:22:26;583.10;;;152.40;;
74459;SDS011;62902;48.854;9.292;2023-06-10T14:24:52;572.65;;;153.10;;
74459;SDS011;62902;48.854;9.292;2023-06-10T14:27:19;588.40;;;148.60;;
74459;SDS011;62902;48.854;9.292;2023-06-10T14:29:46;571.00;;;153.93;;
74459;SDS011;62902;48.854;9.292;2023-06-10T14:32:12;576.30;;;151.95;;
74459;SDS011;62902;48.854;9.292;2023-06-10T14:34:39;571.67;;;155.30;;
74459;SDS011;62902;48.854;9.292;2023-06-10T14:37:07;548.05;;;165.75;;
74459;SDS011;62902;48.854;9.292;2023-06-10T14:39:34;552.28;;;164.82;;
74459;SDS011;62902;48.854;9.292;2023-06-10T14:42:00;588.57;;;149.70;;
74459;SDS011;62902;48.854;9.292;2023-06-10T14:44:27;609.53;;;133.43;;
74459;SDS011;62902;48.854;9.292;2023-06-10T14:46:53;588.75;;;140.70;;